sensor_id;sensor_type;location;lat;lon;timestamp;pressure;altitude;pressure_sealevel;temperature;humidity
25610;BME280;13479;49.044;8.716;2023-03-25T05:01:27;98425.22;;;8.91;65.89
25610;BME280;13479;49.044;8.716;2023-03-25T05:04:01;98410.72;;;8.95;66.04
25610;BME280;13479;49.044;8.716;2023-03-25T05:06:33;98380.34;;;8.90;66.20
25610;BME280;13479;49.044;8.716;2023-03-25T05:08:59;98384.25;;;8.95;66.42
25610;BME280;13479;49.044;8.716;2023-03-25T05:11:32;98363.22;;;8.94;66.66
25610;BME280;13479;49.044;8.716;2023-03-25T05:13:57;98358.06;;;9.02;66.16
25610;BME280;13479;49.044;8.716;2023-03-25T05:16:22;98388.72;;;8.95;66.27
25610;BME280;13479;49.044;8.716;2023-03-25T05:18:48;98383.44;;;9.05;66.07
25610;BME280;13479;49.044;8.716;2023-03-25T05:21:15;98404.75;;;9.03;65.72
25610;BME280;13479;49.044;8.716;2023-03-25T05:23:40;98421.19;;;9.07;64.87
25610;BME280;13479;49.044;8.716;2023-03-25T05:26:06;98426.38;;;9.18;64.58
25610;BME280;13479;49.044;8.716;2023-03-25T05:28:32;98450.06;;;9.30;63.75
25610;BME280;13479;49.044;8.716;2023-03-25T05:30:58;98420.53;;;9.24;63.38
25610;BME280;13479;49.044;8.716;2023-03-25T05:33:23;98395.59;;;9.17;64.06
25610;BME280;13479;49.044;8.716;2023-03-25T05:35:48;98379.81;;;9.25;63.64
25610;BME280;13479;49.044;8.716;2023-03-25T05:38:14;98375.38;;;9.16;63.85
25610;BME280;13479;49.044;8.716;2023-03-25T05:40:47;98350.00;;;9.04;64.27
25610;BME280;13479;49.044;8.716;2023-03-25T05:43:16;98348.19;;;9.14;63.85
25610;BME280;13479;49.044;8.716;2023-03-25T05:45:46;98365.75;;;9.15;63.93
25610;BME280;13479;49.044;8.716;2023-03-25T05:48:12;98348.59;;;9.19;63.98
25610;BME280;13479;49.044;8.716;2023-03-25T05:50:37;98362.81;;;9.18;63.86
25610;BME280;13479;49.044;8.716;2023-03-25T05:53:03;98355.28;;;9.33;63.77
25610;BME280;13479;49.044;8.716;2023-03-25T05:55:28;98361.00;;;9.48;63.69
25610;BME280;13479;49.044;8.716;2023-03-25T05:57:53;98377.59;;;9.50;63.48
25610;BME280;13479;49.044;8.716;2023-03-25T06:00:21;98409.34;;;9.70;62.71
25610;BME280;13479;49.044;8.716;2023-03-25T06:02:47;98405.56;;;9.82;62.68
25610;BME280;13479;49.044;8.716;2023-03-25T06:05:15;98394.81;;;9.74;62.76
25610;BME280;13479;49.044;8.716;2023-03-25T06:07:42;98386.31;;;9.90;62.70
25610;BME280;13479;49.044;8.716;2023-03-25T06:10:09;98379.44;;;9.97;62.76
25610;BME280;13479;49.044;8.716;2023-03-25T06:12:35;98390.50;;;10.20;62.25
25610;BME280;13479;49.044;8.716;2023-03-25T06:15:05;98408.06;;;10.31;61.88
25610;BME280;13479;49.044;8.716;2023-03-25T06:17:30;98420.34;;;10.42;61.79
25610;BME280;13479;49.044;8.716;2023-03-25T06:19:57;98408.53;;;10.55;61.73
25610;BME280;13479;49.044;8.716;2023-03-25T06:22:24;98382.78;;;10.47;62.83
25610;BME280;13479;49.044;8.716;2023-03-25T06:24:51;98237.69;;;10.38;64.69
25610;BME280;13479;49.044;8.716;2023-03-25T06:27:18;98188.41;;;10.35;65.65
25610;BME280;13479;49.044;8.716;2023-03-25T06:29:44;98168.47;;;10.31;66.31
25610;BME280;13479;49.044;8.716;2023-03-25T06:32:13;98169.69;;;10.18;68.10
25610;BME280;13479;49.044;8.716;2023-03-25T06:34:39;98188.22;;;10.00;68.22
25610;BME280;13479;49.044;8.716;2023-03-25T06:37:07;98207.81;;;9.89;68.94
25610;BME280;13479;49.044;8.716;2023-03-25T06:39:33;98236.00;;;9.91;68.96
25610;BME280;13479;49.044;8.716;2023-03-25T06:41:58;98253.75;;;10.08;69.30
25610;BME280;13479;49.044;8.716;2023-03-25T06:44:24;98290.94;;;10.26;68.42
25610;BME280;13479;49.044;8.716;2023-03-25T06:46:50;98349.75;;;10.22;67.97
25610;BME280;13479;49.044;8.716;2023-03-25T06:49:16;98359.91;;;10.26;68.07
25610;BME280;13479;49.044;8.716;2023-03-25T06:51:41;98369.78;;;10.34;67.80
25610;BME280;13479;49.044;8.716;2023-03-25T06:54:06;98375.69;;;10.28;67.74
25610;BME280;13479;49.044;8.716;2023-03-25T06:56:32;98458.31;;;10.53;65.81
25610;BME280;13479;49.044;8.716;2023-03-25T06:58:57;98447.56;;;10.44;65.62
25610;BME280;13479;49.044;8.716;2023-03-25T07:01:22;98431.19;;;10.49;65.88
25610;BME280;13479;49.044;8.716;2023-03-25T07:03:48;98441.53;;;10.52;65.46
25610;BME280;13479;49.044;8.716;2023-03-25T07:06:16;98470.69;;;10.62;64.19
25610;BME280;13479;49.044;8.716;2023-03-25T07:08:42;98480.94;;;10.85;63.82
25610;BME280;13479;49.044;8.716;2023-03-25T07:11:07;98456.50;;;10.99;63.66
25610;BME280;13479;49.044;8.716;2023-03-25T07:13:33;98478.06;;;11.42;62.41
25610;BME280;13479;49.044;8.716;2023-03-25T07:15:59;98526.22;;;12.56;58.39
25610;BME280;13479;49.044;8.716;2023-03-25T07:18:25;98486.50;;;13.98;54.33
25610;BME280;13479;49.044;8.716;2023-03-25T07:20:50;98454.13;;;14.09;52.25
25610;BME280;13479;49.044;8.716;2023-03-25T07:23:15;98429.75;;;14.04;52.30
25610;BME280;13479;49.044;8.716;2023-03-25T07:25:41;98424.19;;;14.87;51.08
25610;BME280;13479;49.044;8.716;2023-03-25T07:28:06;98422.50;;;16.25;48.38
25610;BME280;13479;49.044;8.716;2023-03-25T07:30:31;98404.28;;;17.17;45.75
25610;BME280;13479;49.044;8.716;2023-03-25T07:32:56;98413.56;;;18.43;42.36
25610;BME280;13479;49.044;8.716;2023-03-25T07:35:22;98431.63;;;19.94;39.83
25610;BME280;13479;49.044;8.716;2023-03-25T07:37:47;98430.97;;;20.39;37.76
25610;BME280;13479;49.044;8.716;2023-03-25T07:40:12;98457.41;;;20.89;36.50
25610;BME280;13479;49.044;8.716;2023-03-25T07:42:37;98457.19;;;22.00;35.33
25610;BME280;13479;49.044;8.716;2023-03-25T07:45:04;98453.47;;;23.50;32.62
25610;BME280;13479;49.044;8.716;2023-03-25T07:47:29;98460.94;;;22.68;32.46
25610;BME280;13479;49.044;8.716;2023-03-25T07:49:55;98468.13;;;23.11;32.45
25610;BME280;13479;49.044;8.716;2023-03-25T07:52:20;98470.56;;;22.64;32.86
25610;BME280;13479;49.044;8.716;2023-03-25T07:54:45;98486.03;;;22.31;32.62
25610;BME280;13479;49.044;8.716;2023-03-25T07:57:11;98471.75;;;21.99;33.51
25610;BME280;13479;49.044;8.716;2023-03-25T07:59:37;98470.34;;;20.60;35.25
25610;BME280;13479;49.044;8.716;2023-03-25T08:02:02;98429.69;;;19.54;36.69
25610;BME280;13479;49.044;8.716;2023-03-25T08:04:27;98415.03;;;20.17;37.06
25610;BME280;13479;49.044;8.716;2023-03-25T08:06:53;98409.84;;;19.41;37.08
25610;BME280;13479;49.044;8.716;2023-03-25T08:09:18;98387.69;;;18.77;37.73
25610;BME280;13479;49.044;8.716;2023-03-25T08:11:43;98383.53;;;19.70;36.48
25610;BME280;13479;49.044;8.716;2023-03-25T08:14:08;98389.09;;;20.43;34.86
25610;BME280;13479;49.044;8.716;2023-03-25T08:16:34;98411.50;;;19.69;35.97
25610;BME280;13479;49.044;8.716;2023-03-25T08:18:59;98406.06;;;19.16;36.83
25610;BME280;13479;49.044;8.716;2023-03-25T08:21:24;98394.25;;;21.03;34.57
25610;BME280;13479;49.044;8.716;2023-03-25T08:23:52;98426.81;;;22.48;32.92
25610;BME280;13479;49.044;8.716;2023-03-25T08:26:22;98448.13;;;23.73;31.02
25610;BME280;13479;49.044;8.716;2023-03-25T08:28:47;98459.97;;;24.86;29.42
25610;BME280;13479;49.044;8.716;2023-03-25T08:31:13;98463.47;;;24.98;29.44
25610;BME280;13479;49.044;8.716;2023-03-25T08:33:39;98462.81;;;23.66;30.05
25610;BME280;13479;49.044;8.716;2023-03-25T08:36:05;98466.03;;;22.32;31.95
25610;BME280;13479;49.044;8.716;2023-03-25T08:38:31;98474.47;;;20.76;34.08
25610;BME280;13479;49.044;8.716;2023-03-25T08:40:59;98446.28;;;18.53;39.39
25610;BME280;13479;49.044;8.716;2023-03-25T08:43:25;98477.47;;;16.81;43.73
25610;BME280;13479;49.044;8.716;2023-03-25T08:45:50;98463.00;;;15.84;45.47
25610;BME280;13479;49.044;8.716;2023-03-25T08:48:16;98466.56;;;15.53;46.93
25610;BME280;13479;49.044;8.716;2023-03-25T08:50:41;98447.75;;;15.14;47.63
25610;BME280;13479;49.044;8.716;2023-03-25T08:53:06;98439.06;;;15.67;46.58
25610;BME280;13479;49.044;8.716;2023-03-25T08:55:32;98417.28;;;16.98;44.91
25610;BME280;13479;49.044;8.716;2023-03-25T08:58:01;98413.50;;;19.13;41.53
25610;BME280;13479;49.044;8.716;2023-03-25T09:00:26;98427.34;;;20.85;37.93
25610;BME280;13479;49.044;8.716;2023-03-25T09:02:52;98430.78;;;21.06;36.92
25610;BME280;13479;49.044;8.716;2023-03-25T09:05:17;98448.53;;;22.35;35.37
25610;BME280;13479;49.044;8.716;2023-03-25T09:07:43;98459.88;;;22.50;33.32
25610;BME280;13479;49.044;8.716;2023-03-25T09:10:09;98466.56;;;22.66;33.60
25610;BME280;13479;49.044;8.716;2023-03-25T09:12:34;98484.16;;;24.04;32.02
25610;BME280;13479;49.044;8.716;2023-03-25T09:15:00;98462.72;;;24.15;30.62
25610;BME280;13479;49.044;8.716;2023-03-25T09:17:25;98470.72;;;24.21;30.99
25610;BME280;13479;49.044;8.716;2023-03-25T09:19:51;98479.72;;;25.80;29.83
25610;BME280;13479;49.044;8.716;2023-03-25T09:22:16;98475.22;;;27.21;28.04
25610;BME280;13479;49.044;8.716;2023-03-25T09:24:41;98471.66;;;27.97;26.36
25610;BME280;13479;49.044;8.716;2023-03-25T09:27:07;98486.13;;;28.30;25.46
25610;BME280;13479;49.044;8.716;2023-03-25T09:29:33;98483.69;;;28.01;25.43
25610;BME280;13479;49.044;8.716;2023-03-25T09:31:58;98499.47;;;27.99;25.18
25610;BME280;13479;49.044;8.716;2023-03-25T09:34:25;98492.63;;;26.19;27.14
25610;BME280;13479;49.044;8.716;2023-03-25T09:36:51;98502.47;;;24.92;28.78
25610;BME280;13479;49.044;8.716;2023-03-25T09:39:16;98515.00;;;22.49;31.96
25610;BME280;13479;49.044;8.716;2023-03-25T09:42:08;98496.50;;;20.05;38.08
25610;BME280;13479;49.044;8.716;2023-03-25T09:47:15;98535.56;;;18.77;42.45
25610;BME280;13479;49.044;8.716;2023-03-25T09:49:45;98518.19;;;19.15;42.87
25610;BME280;13479;49.044;8.716;2023-03-25T09:52:16;98490.59;;;19.41;41.72
25610;BME280;13479;49.044;8.716;2023-03-25T09:54:49;98474.09;;;19.85;41.23
25610;BME280;13479;49.044;8.716;2023-03-25T09:57:27;98450.88;;;19.70;41.95
25610;BME280;13479;49.044;8.716;2023-03-25T09:59:56;98447.56;;;20.22;40.44
25610;BME280;13479;49.044;8.716;2023-03-25T10:05:15;98447.13;;;20.52;39.71
25610;BME280;13479;49.044;8.716;2023-03-25T10:07:53;98446.44;;;20.70;39.04
25610;BME280;13479;49.044;8.716;2023-03-25T10:13:06;98443.56;;;21.17;39.32
25610;BME280;13479;49.044;8.716;2023-03-25T10:15:45;98454.88;;;22.03;36.48
25610;BME280;13479;49.044;8.716;2023-03-25T10:21:02;98462.03;;;22.97;34.62
25610;BME280;13479;49.044;8.716;2023-03-25T10:26:14;98469.53;;;24.05;32.60
25610;BME280;13479;49.044;8.716;2023-03-25T10:28:47;98468.81;;;23.56;33.21
25610;BME280;13479;49.044;8.716;2023-03-25T10:31:16;98468.44;;;23.22;33.29
25610;BME280;13479;49.044;8.716;2023-03-25T10:33:52;98459.81;;;22.32;34.38
25610;BME280;13479;49.044;8.716;2023-03-25T10:36:28;98463.38;;;22.07;35.57
25610;BME280;13479;49.044;8.716;2023-03-25T10:38:55;98435.31;;;21.83;35.36
25610;BME280;13479;49.044;8.716;2023-03-25T10:41:30;98422.66;;;21.06;36.35
25610;BME280;13479;49.044;8.716;2023-03-25T10:43:59;98406.97;;;20.10;37.49
25610;BME280;13479;49.044;8.716;2023-03-25T10:46:34;98394.91;;;19.45;39.37
25610;BME280;13479;49.044;8.716;2023-03-25T10:49:13;98384.53;;;19.16;40.36
25610;BME280;13479;49.044;8.716;2023-03-25T10:51:39;98392.19;;;18.63;41.69
25610;BME280;13479;49.044;8.716;2023-03-25T10:54:05;98380.09;;;18.39;41.84
25610;BME280;13479;49.044;8.716;2023-03-25T10:56:34;98366.41;;;18.34;42.17
25610;BME280;13479;49.044;8.716;2023-03-25T10:59:05;98361.19;;;18.67;41.84
25610;BME280;13479;49.044;8.716;2023-03-25T11:01:39;98359.19;;;18.90;41.04
25610;BME280;13479;49.044;8.716;2023-03-25T11:04:06;98381.91;;;18.80;39.62
25610;BME280;13479;49.044;8.716;2023-03-25T11:06:36;98391.63;;;18.81;39.00
25610;BME280;13479;49.044;8.716;2023-03-25T11:11:33;98378.25;;;18.11;40.31
25610;BME280;13479;49.044;8.716;2023-03-25T11:13:58;98384.03;;;17.36;41.66
25610;BME280;13479;49.044;8.716;2023-03-25T11:16:24;98366.03;;;17.30;42.39
25610;BME280;13479;49.044;8.716;2023-03-25T11:18:50;98357.53;;;17.05;43.29
25610;BME280;13479;49.044;8.716;2023-03-25T11:21:17;98350.72;;;16.87;43.46
25610;BME280;13479;49.044;8.716;2023-03-25T11:23:46;98353.34;;;16.65;43.61
25610;BME280;13479;49.044;8.716;2023-03-25T11:26:24;98348.13;;;16.12;45.50
25610;BME280;13479;49.044;8.716;2023-03-25T11:28:54;98353.72;;;15.72;46.32
25610;BME280;13479;49.044;8.716;2023-03-25T11:31:22;98356.41;;;15.34;48.01
25610;BME280;13479;49.044;8.716;2023-03-25T11:34:13;98360.06;;;15.33;50.15
25610;BME280;13479;49.044;8.716;2023-03-25T11:37:36;98363.91;;;15.54;50.74
25610;BME280;13479;49.044;8.716;2023-03-25T11:39:40;98355.53;;;15.57;47.24
25610;BME280;13479;49.044;8.716;2023-03-25T11:42:34;98370.00;;;15.48;46.14
25610;BME280;13479;49.044;8.716;2023-03-25T11:45:03;98330.34;;;15.51;47.68
25610;BME280;13479;49.044;8.716;2023-03-25T11:47:37;98335.53;;;15.68;46.89
25610;BME280;13479;49.044;8.716;2023-03-25T11:50:05;98345.38;;;15.52;45.36
25610;BME280;13479;49.044;8.716;2023-03-25T11:52:42;98339.63;;;15.79;46.13
25610;BME280;13479;49.044;8.716;2023-03-25T11:55:18;98340.97;;;15.98;45.03
25610;BME280;13479;49.044;8.716;2023-03-25T11:57:45;98357.13;;;15.81;43.95
25610;BME280;13479;49.044;8.716;2023-03-25T12:00:26;98358.50;;;15.62;44.61
25610;BME280;13479;49.044;8.716;2023-03-25T12:05:31;98368.09;;;15.33;44.16
25610;BME280;13479;49.044;8.716;2023-03-25T12:08:08;98364.97;;;15.29;44.65
25610;BME280;13479;49.044;8.716;2023-03-25T12:10:47;98345.69;;;15.34;44.72
25610;BME280;13479;49.044;8.716;2023-03-25T12:19:35;98375.50;;;15.69;43.66
25610;BME280;13479;49.044;8.716;2023-03-25T12:22:27;98410.06;;;15.94;43.05
25610;BME280;13479;49.044;8.716;2023-03-25T12:33:41;98335.00;;;15.34;45.71
25610;BME280;13479;49.044;8.716;2023-03-25T12:44:50;98303.00;;;14.79;46.70
25610;BME280;13479;49.044;8.716;2023-03-25T12:47:23;98311.41;;;14.68;47.02
25610;BME280;13479;49.044;8.716;2023-03-25T12:53:01;98310.78;;;14.58;48.21
25610;BME280;13479;49.044;8.716;2023-03-25T12:55:35;98303.41;;;14.60;48.47
25610;BME280;13479;49.044;8.716;2023-03-25T13:00:48;98311.19;;;15.01;47.66
25610;BME280;13479;49.044;8.716;2023-03-25T13:03:34;98343.44;;;15.23;45.78
25610;BME280;13479;49.044;8.716;2023-03-25T13:08:47;98379.91;;;15.16;43.61
25610;BME280;13479;49.044;8.716;2023-03-25T13:11:33;98383.00;;;15.04;44.32
25610;BME280;13479;49.044;8.716;2023-03-25T13:14:08;98372.13;;;15.06;44.90
25610;BME280;13479;49.044;8.716;2023-03-25T13:16:37;98382.03;;;15.20;44.08
25610;BME280;13479;49.044;8.716;2023-03-25T13:19:18;98383.06;;;15.42;43.17
25610;BME280;13479;49.044;8.716;2023-03-25T13:21:48;98383.19;;;15.49;43.67
25610;BME280;13479;49.044;8.716;2023-03-25T13:24:20;98384.31;;;15.55;43.84
25610;BME280;13479;49.044;8.716;2023-03-25T13:26:49;98394.88;;;15.48;42.10
25610;BME280;13479;49.044;8.716;2023-03-25T13:29:25;98405.47;;;15.41;40.82
25610;BME280;13479;49.044;8.716;2023-03-25T13:31:54;98397.88;;;15.30;40.27
25610;BME280;13479;49.044;8.716;2023-03-25T13:34:24;98400.28;;;15.17;39.05
25610;BME280;13479;49.044;8.716;2023-03-25T13:37:08;98397.16;;;15.13;39.19
25610;BME280;13479;49.044;8.716;2023-03-25T13:40:02;98378.13;;;15.31;42.15
25610;BME280;13479;49.044;8.716;2023-03-25T13:42:44;98343.75;;;15.66;43.26
25610;BME280;13479;49.044;8.716;2023-03-25T13:45:20;98378.44;;;15.74;40.81
25610;BME280;13479;49.044;8.716;2023-03-25T13:47:51;98391.69;;;15.53;40.87
25610;BME280;13479;49.044;8.716;2023-03-25T13:50:25;98379.22;;;15.22;43.32
25610;BME280;13479;49.044;8.716;2023-03-25T13:53:05;98354.44;;;15.05;44.71
25610;BME280;13479;49.044;8.716;2023-03-25T13:55:39;98336.94;;;14.94;44.91
25610;BME280;13479;49.044;8.716;2023-03-25T14:05:58;98342.09;;;14.32;43.11
25610;BME280;13479;49.044;8.716;2023-03-25T14:08:55;98379.34;;;14.17;42.60
25610;BME280;13479;49.044;8.716;2023-03-25T14:11:39;98377.34;;;14.19;43.47
25610;BME280;13479;49.044;8.716;2023-03-25T14:14:18;98387.97;;;14.36;42.83
25610;BME280;13479;49.044;8.716;2023-03-25T14:16:51;98411.03;;;14.29;42.29
25610;BME280;13479;49.044;8.716;2023-03-25T14:19:38;98407.91;;;14.00;43.16
25610;BME280;13479;49.044;8.716;2023-03-25T14:22:30;98402.84;;;14.30;43.38
25610;BME280;13479;49.044;8.716;2023-03-25T14:24:58;98397.22;;;14.65;42.84
25610;BME280;13479;49.044;8.716;2023-03-25T14:27:29;98395.44;;;14.49;42.83
25610;BME280;13479;49.044;8.716;2023-03-25T14:29:58;98398.50;;;14.38;43.67
25610;BME280;13479;49.044;8.716;2023-03-25T14:32:31;98369.69;;;14.56;43.55
25610;BME280;13479;49.044;8.716;2023-03-25T14:46:02;98343.56;;;14.43;44.49
25610;BME280;13479;49.044;8.716;2023-03-25T14:51:17;98333.16;;;14.48;44.53
25610;BME280;13479;49.044;8.716;2023-03-25T14:56:24;98319.66;;;14.50;45.04
25610;BME280;13479;49.044;8.716;2023-03-25T14:58:52;98310.72;;;14.66;44.98
25610;BME280;13479;49.044;8.716;2023-03-25T15:01:19;98332.09;;;14.66;44.53
25610;BME280;13479;49.044;8.716;2023-03-25T15:03:48;98300.34;;;14.71;45.37
25610;BME280;13479;49.044;8.716;2023-03-25T15:06:17;98305.69;;;14.79;44.62
25610;BME280;13479;49.044;8.716;2023-03-25T15:08:54;98326.19;;;14.79;43.89
25610;BME280;13479;49.044;8.716;2023-03-25T15:11:32;98340.81;;;14.68;43.42
25610;BME280;13479;49.044;8.716;2023-03-25T15:14:02;98368.16;;;14.62;42.72
25610;BME280;13479;49.044;8.716;2023-03-25T15:19:03;98380.91;;;14.51;42.73
25610;BME280;13479;49.044;8.716;2023-03-25T15:21:31;98388.63;;;14.38;42.19
25610;BME280;13479;49.044;8.716;2023-03-25T15:24:03;98390.66;;;14.28;42.41
25610;BME280;13479;49.044;8.716;2023-03-25T15:26:41;98382.50;;;14.21;43.02
25610;BME280;13479;49.044;8.716;2023-03-25T15:32:11;98396.66;;;14.30;42.21
25610;BME280;13479;49.044;8.716;2023-03-25T15:37:44;98418.00;;;14.46;39.53
25610;BME280;13479;49.044;8.716;2023-03-25T15:40:21;98412.69;;;14.30;39.38
25610;BME280;13479;49.044;8.716;2023-03-25T15:45:36;98418.63;;;14.57;38.77
25610;BME280;13479;49.044;8.716;2023-03-25T15:56:45;98432.75;;;14.65;37.65
25610;BME280;13479;49.044;8.716;2023-03-25T16:01:50;98433.34;;;14.92;36.99
25610;BME280;13479;49.044;8.716;2023-03-25T16:04:41;98440.53;;;14.92;37.37
25610;BME280;13479;49.044;8.716;2023-03-25T16:07:12;98435.22;;;14.83;37.25
25610;BME280;13479;49.044;8.716;2023-03-25T16:09:40;98440.59;;;14.75;37.42
25610;BME280;13479;49.044;8.716;2023-03-25T16:12:09;98433.66;;;14.49;38.17
25610;BME280;13479;49.044;8.716;2023-03-25T16:14:35;98407.94;;;14.57;38.02
25610;BME280;13479;49.044;8.716;2023-03-25T16:17:02;98403.63;;;14.47;38.39
25610;BME280;13479;49.044;8.716;2023-03-25T16:19:41;98400.06;;;14.55;38.02
25610;BME280;13479;49.044;8.716;2023-03-25T16:22:16;98401.59;;;14.49;38.08
25610;BME280;13479;49.044;8.716;2023-03-25T16:24:42;98393.59;;;14.58;38.55
25610;BME280;13479;49.044;8.716;2023-03-25T16:27:18;98388.56;;;14.55;38.76
25610;BME280;13479;49.044;8.716;2023-03-25T16:29:47;98384.97;;;14.39;39.14
25610;BME280;13479;49.044;8.716;2023-03-25T16:32:21;98380.81;;;14.36;39.57
25610;BME280;13479;49.044;8.716;2023-03-25T16:34:47;98360.19;;;14.14;40.44
25610;BME280;13479;49.044;8.716;2023-03-25T16:37:13;98339.38;;;14.01;41.71
25610;BME280;13479;49.044;8.716;2023-03-25T16:39:39;98337.19;;;14.04;42.57
25610;BME280;13479;49.044;8.716;2023-03-25T16:42:14;98328.03;;;13.99;43.02
25610;BME280;13479;49.044;8.716;2023-03-25T16:44:41;98320.03;;;13.99;43.08
25610;BME280;13479;49.044;8.716;2023-03-25T16:47:06;98323.75;;;13.89;43.44
25610;BME280;13479;49.044;8.716;2023-03-25T16:49:34;98305.41;;;13.70;44.24
25610;BME280;13479;49.044;8.716;2023-03-25T16:52:07;98311.59;;;13.70;44.63
25610;BME280;13479;49.044;8.716;2023-03-25T16:54:43;98309.75;;;13.71;44.53
25610;BME280;13479;49.044;8.716;2023-03-25T16:57:15;98296.41;;;13.71;44.78
25610;BME280;13479;49.044;8.716;2023-03-25T16:59:44;98291.94;;;13.71;44.57
25610;BME280;13479;49.044;8.716;2023-03-25T17:02:29;98293.25;;;13.67;44.32
25610;BME280;13479;49.044;8.716;2023-03-25T17:05:24;98298.13;;;13.64;44.24
25610;BME280;13479;49.044;8.716;2023-03-25T17:10:39;98290.50;;;13.44;44.20
25610;BME280;13479;49.044;8.716;2023-03-25T17:13:08;98288.63;;;13.36;44.38
25610;BME280;13479;49.044;8.716;2023-03-25T17:15:34;98295.13;;;13.34;44.33
25610;BME280;13479;49.044;8.716;2023-03-25T17:18:01;98287.63;;;13.29;43.99
25610;BME280;13479;49.044;8.716;2023-03-25T17:20:37;98309.63;;;13.23;43.66
25610;BME280;13479;49.044;8.716;2023-03-25T17:23:17;98305.44;;;13.28;43.74
25610;BME280;13479;49.044;8.716;2023-03-25T17:25:59;98302.44;;;13.15;43.42
25610;BME280;13479;49.044;8.716;2023-03-25T17:30:52;98331.94;;;13.30;43.39
25610;BME280;13479;49.044;8.716;2023-03-25T17:35:54;98345.75;;;13.09;43.63
25610;BME280;13479;49.044;8.716;2023-03-25T17:38:34;98347.25;;;13.03;43.50
25610;BME280;13479;49.044;8.716;2023-03-25T17:41:05;98348.56;;;12.91;43.87
25610;BME280;13479;49.044;8.716;2023-03-25T17:43:33;98351.72;;;12.86;43.67
25610;BME280;13479;49.044;8.716;2023-03-25T17:45:59;98347.03;;;12.80;44.23
25610;BME280;13479;49.044;8.716;2023-03-25T17:48:25;98342.38;;;12.74;44.26
25610;BME280;13479;49.044;8.716;2023-03-25T17:50:52;98331.72;;;12.74;44.11
25610;BME280;13479;49.044;8.716;2023-03-25T17:53:18;98325.09;;;12.86;44.21
25610;BME280;13479;49.044;8.716;2023-03-25T17:55:45;98341.88;;;12.70;44.38
25610;BME280;13479;49.044;8.716;2023-03-25T17:58:11;98331.22;;;12.78;44.83
25610;BME280;13479;49.044;8.716;2023-03-25T18:00:37;98338.06;;;12.81;44.58
25610;BME280;13479;49.044;8.716;2023-03-25T18:03:11;98341.72;;;12.80;44.29
25610;BME280;13479;49.044;8.716;2023-03-25T18:05:36;98328.44;;;12.88;44.59
25610;BME280;13479;49.044;8.716;2023-03-25T18:08:02;98330.75;;;12.83;44.66
25610;BME280;13479;49.044;8.716;2023-03-25T18:10:29;98334.56;;;12.89;44.34
25610;BME280;13479;49.044;8.716;2023-03-25T18:12:55;98314.25;;;12.79;44.74
25610;BME280;13479;49.044;8.716;2023-03-25T18:15:21;98319.72;;;12.78;45.05
25610;BME280;13479;49.044;8.716;2023-03-25T18:17:46;98306.75;;;12.75;45.53
25610;BME280;13479;49.044;8.716;2023-03-25T18:20:14;98308.56;;;12.74;45.72
25610;BME280;13479;49.044;8.716;2023-03-25T18:22:40;98333.91;;;12.78;45.59
25610;BME280;13479;49.044;8.716;2023-03-25T18:25:05;98341.69;;;12.63;46.06
25610;BME280;13479;49.044;8.716;2023-03-25T18:27:31;98354.88;;;12.81;47.50
25610;BME280;13479;49.044;8.716;2023-03-25T18:29:57;98359.34;;;12.73;48.79
25610;BME280;13479;49.044;8.716;2023-03-25T18:32:23;98355.69;;;12.65;49.39
25610;BME280;13479;49.044;8.716;2023-03-25T18:34:48;98363.31;;;12.60;48.70
25610;BME280;13479;49.044;8.716;2023-03-25T18:37:13;98371.66;;;12.65;48.03
25610;BME280;13479;49.044;8.716;2023-03-25T18:39:38;98384.91;;;12.57;47.47
25610;BME280;13479;49.044;8.716;2023-03-25T18:42:04;98381.59;;;12.55;47.76
25610;BME280;13479;49.044;8.716;2023-03-25T18:44:29;98394.75;;;12.57;47.78
25610;BME280;13479;49.044;8.716;2023-03-25T18:46:55;98376.22;;;12.47;48.48
25610;BME280;13479;49.044;8.716;2023-03-25T18:49:20;98393.28;;;12.62;47.87
25610;BME280;13479;49.044;8.716;2023-03-25T18:51:45;98390.13;;;12.67;48.36
25610;BME280;13479;49.044;8.716;2023-03-25T18:54:15;98388.94;;;12.61;48.21
25610;BME280;13479;49.044;8.716;2023-03-25T18:56:41;98392.56;;;12.52;48.22
25610;BME280;13479;49.044;8.716;2023-03-25T18:59:07;98405.03;;;12.51;48.43
25610;BME280;13479;49.044;8.716;2023-03-25T19:01:32;98400.06;;;12.57;48.68
25610;BME280;13479;49.044;8.716;2023-03-25T19:03:58;98402.91;;;12.55;48.70
25610;BME280;13479;49.044;8.716;2023-03-25T19:06:27;98400.53;;;12.44;49.27
25610;BME280;13479;49.044;8.716;2023-03-25T19:08:53;98401.16;;;12.38;49.87
25610;BME280;13479;49.044;8.716;2023-03-25T19:11:18;98410.25;;;12.27;49.80
25610;BME280;13479;49.044;8.716;2023-03-25T19:13:43;98417.22;;;12.28;49.78
25610;BME280;13479;49.044;8.716;2023-03-25T19:16:09;98409.72;;;12.23;50.13
25610;BME280;13479;49.044;8.716;2023-03-25T19:18:35;98415.38;;;12.20;50.52
25610;BME280;13479;49.044;8.716;2023-03-25T19:21:00;98399.25;;;12.22;50.83
25610;BME280;13479;49.044;8.716;2023-03-25T19:23:26;98421.16;;;12.15;50.75
25610;BME280;13479;49.044;8.716;2023-03-25T19:25:52;98410.41;;;12.25;50.64
25610;BME280;13479;49.044;8.716;2023-03-25T19:28:21;98413.28;;;12.05;50.93
25610;BME280;13479;49.044;8.716;2023-03-25T19:30:48;98379.38;;;12.08;51.15
25610;BME280;13479;49.044;8.716;2023-03-25T19:33:15;98402.72;;;11.96;51.64
25610;BME280;13479;49.044;8.716;2023-03-25T19:35:40;98406.09;;;11.98;51.69
25610;BME280;13479;49.044;8.716;2023-03-25T19:38:07;98412.25;;;11.98;51.30
25610;BME280;13479;49.044;8.716;2023-03-25T19:40:35;98413.22;;;11.97;51.63
25610;BME280;13479;49.044;8.716;2023-03-25T19:43:01;98427.06;;;11.83;51.70
25610;BME280;13479;49.044;8.716;2023-03-25T19:45:28;98415.06;;;11.79;52.00
25610;BME280;13479;49.044;8.716;2023-03-25T19:47:54;98426.06;;;11.84;51.91
25610;BME280;13479;49.044;8.716;2023-03-25T19:50:24;98414.38;;;11.77;52.24
25610;BME280;13479;49.044;8.716;2023-03-25T19:52:51;98414.06;;;11.80;52.27
25610;BME280;13479;49.044;8.716;2023-03-25T19:55:18;98423.38;;;11.76;52.76
25610;BME280;13479;49.044;8.716;2023-03-25T19:57:44;98427.00;;;11.74;52.63
25610;BME280;13479;49.044;8.716;2023-03-25T20:00:13;98420.63;;;11.67;53.02